createdAt,value
2019-03-28T00:00:10.791Z,6.60
2019-03-28T00:02:40.158Z,6.60
2019-03-28T00:05:09.519Z,6.60
2019-03-28T00:07:38.818Z,6.60
2019-03-28T00:10:08.483Z,6.50
2019-03-28T00:12:37.794Z,6.50
2019-03-28T00:15:08.167Z,6.50
2019-03-28T00:17:38.029Z,6.50
2019-03-28T00:20:07.391Z,6.50
2019-03-28T00:22:56.616Z,6.50
2019-03-28T00:25:26.777Z,6.50
2019-03-28T00:27:56.083Z,6.40
2019-03-28T00:30:25.368Z,6.40
2019-03-28T00:32:54.664Z,6.40
2019-03-28T00:35:24.223Z,6.30
2019-03-28T00:37:53.526Z,6.40
2019-03-28T00:40:22.823Z,6.30
2019-03-28T00:42:52.195Z,6.20
2019-03-28T00:45:21.482Z,6.20
2019-03-28T00:47:51.039Z,6.20
2019-03-28T00:50:20.330Z,6.10
2019-03-28T00:52:49.636Z,6.10
2019-03-28T00:55:18.991Z,6.10
2019-03-28T00:57:48.302Z,6.00
2019-03-28T01:00:17.931Z,6.10
2019-03-28T01:02:47.226Z,6.00
2019-03-28T01:05:17.143Z,6.00
2019-03-28T01:07:47.260Z,6.00
2019-03-28T01:10:16.655Z,6.00
2019-03-28T01:12:45.959Z,6.00
2019-03-28T01:15:15.267Z,5.90
2019-03-28T01:17:44.550Z,6.00
2019-03-28T01:20:13.990Z,5.90
2019-03-28T01:22:43.295Z,6.00
2019-03-28T01:25:12.579Z,6.00
2019-03-28T01:27:41.897Z,6.00
2019-03-28T01:30:12.014Z,6.00
2019-03-28T01:32:41.625Z,6.00
2019-03-28T01:35:10.910Z,6.00
2019-03-28T01:37:40.215Z,6.00
2019-03-28T01:40:09.570Z,6.00
2019-03-28T01:42:38.883Z,6.00
2019-03-28T01:45:08.336Z,6.00
2019-03-28T01:47:37.827Z,5.90
2019-03-28T01:50:07.948Z,5.90
2019-03-28T01:52:38.219Z,5.90
2019-03-28T01:55:08.246Z,5.90
2019-03-28T01:57:37.547Z,5.80
2019-03-28T02:00:09.989Z,5.80
2019-03-28T02:02:39.278Z,5.80
2019-03-28T02:05:08.848Z,5.70
2019-03-28T02:07:38.162Z,5.60
2019-03-28T02:10:07.983Z,5.60
2019-03-28T02:12:38.735Z,5.50
2019-03-28T02:15:09.672Z,5.50
2019-03-28T02:17:38.959Z,5.40
2019-03-28T02:20:08.937Z,5.30
2019-03-28T02:22:38.487Z,5.30
2019-03-28T02:25:08.742Z,5.30
2019-03-28T02:27:38.323Z,5.40
2019-03-28T02:30:08.894Z,5.40
2019-03-28T02:32:38.219Z,5.40
2019-03-28T02:35:07.862Z,5.40
2019-03-28T02:37:37.167Z,5.40
2019-03-28T02:40:07.312Z,5.30
2019-03-28T02:42:36.991Z,5.30
2019-03-28T02:45:06.818Z,5.30
2019-03-28T02:47:36.166Z,5.30
2019-03-28T02:50:08.365Z,5.30
2019-03-28T02:52:37.634Z,5.30
2019-03-28T02:55:07.371Z,5.20
2019-03-28T02:57:41.587Z,5.10
2019-03-28T03:00:08.459Z,5.00
2019-03-28T03:02:37.747Z,5.00
2019-03-28T03:05:08.175Z,5.10
2019-03-28T03:07:37.477Z,5.00
2019-03-28T03:10:07.499Z,5.00
2019-03-28T03:12:36.790Z,5.10
2019-03-28T03:15:09.608Z,5.00
2019-03-28T03:17:38.912Z,5.00
2019-03-28T03:20:08.996Z,5.00
2019-03-28T03:22:38.287Z,5.00
2019-03-28T03:25:08.263Z,5.00
2019-03-28T03:27:37.610Z,5.00
2019-03-28T03:30:08.978Z,4.90
2019-03-28T03:32:38.328Z,4.90
2019-03-28T03:35:07.776Z,4.90
2019-03-28T03:37:37.056Z,4.90
2019-03-28T03:40:08.301Z,4.80
2019-03-28T03:42:37.582Z,4.80
2019-03-28T03:45:09.371Z,4.80
2019-03-28T03:47:38.975Z,4.70
2019-03-28T03:50:08.795Z,4.70
2019-03-28T03:52:38.098Z,4.70
2019-03-28T03:55:07.750Z,4.60
2019-03-28T03:57:37.019Z,4.60
2019-03-28T04:00:07.159Z,4.50
2019-03-28T04:02:36.686Z,4.50
2019-03-28T04:05:07.161Z,4.50
2019-03-28T04:07:36.531Z,4.40
2019-03-28T04:10:06.849Z,4.40
2019-03-28T04:12:36.191Z,4.40
2019-03-28T04:15:06.046Z,4.50
2019-03-28T04:17:35.359Z,4.50
2019-03-28T04:20:06.682Z,4.50
2019-03-28T04:22:36.979Z,4.50
2019-03-28T04:25:06.780Z,4.50
2019-03-28T04:27:36.083Z,4.50
2019-03-28T04:30:08.847Z,4.40
2019-03-28T04:32:38.142Z,4.40
2019-03-28T04:35:07.568Z,4.50
2019-03-28T04:37:36.862Z,4.40
2019-03-28T04:40:07.129Z,4.40
2019-03-28T04:42:36.453Z,4.50
2019-03-28T04:45:06.211Z,4.50
2019-03-28T04:47:36.279Z,4.50
2019-03-28T04:50:09.106Z,4.60
2019-03-28T04:52:38.722Z,4.60
2019-03-28T04:55:08.751Z,4.60
2019-03-28T04:57:40.929Z,4.60
2019-03-28T05:00:10.062Z,4.70
2019-03-28T05:02:39.363Z,4.70
2019-03-28T05:05:08.791Z,4.70
2019-03-28T05:07:38.074Z,4.70
2019-03-28T05:10:09.210Z,4.70
2019-03-28T05:12:38.517Z,4.70
2019-03-28T05:15:09.430Z,4.70
2019-03-28T05:17:38.736Z,4.80
2019-03-28T05:20:08.475Z,4.80
2019-03-28T05:22:37.754Z,4.90
2019-03-28T05:25:07.296Z,4.90
2019-03-28T05:27:36.812Z,4.90
2019-03-28T05:30:09.191Z,5.00
2019-03-28T05:32:38.470Z,5.00
2019-03-28T05:35:08.195Z,5.00
2019-03-28T05:37:37.492Z,5.00
2019-03-28T05:40:07.444Z,5.00
2019-03-28T05:42:36.727Z,5.10
2019-03-28T05:45:06.912Z,5.20
2019-03-28T05:47:36.179Z,5.20
2019-03-28T05:50:06.922Z,5.20
2019-03-28T05:52:36.208Z,5.20
2019-03-28T05:55:06.949Z,5.30
2019-03-28T05:57:36.520Z,5.30
2019-03-28T06:00:07.246Z,5.40
2019-03-28T06:02:36.858Z,5.40
2019-03-28T06:05:07.490Z,5.30
2019-03-28T06:07:36.790Z,5.30
2019-03-28T06:10:07.224Z,5.30
2019-03-28T06:12:36.517Z,5.30
2019-03-28T06:15:06.937Z,5.40
2019-03-28T06:17:36.236Z,5.50
2019-03-28T06:20:07.831Z,5.50
2019-03-28T06:22:37.134Z,5.50
2019-03-28T06:25:07.051Z,5.50
2019-03-28T06:27:36.358Z,5.70
2019-03-28T06:30:07.881Z,5.70
2019-03-28T06:32:42.977Z,5.80
2019-03-28T06:35:08.235Z,5.90
2019-03-28T06:37:37.539Z,6.00
2019-03-28T06:40:07.667Z,6.10
2019-03-28T06:42:36.959Z,6.10
2019-03-28T06:45:07.186Z,6.10
2019-03-28T06:47:36.863Z,6.10
2019-03-28T06:50:07.282Z,6.10
2019-03-28T06:52:36.583Z,6.20
2019-03-28T06:55:06.631Z,6.20
2019-03-28T06:57:35.906Z,6.40
2019-03-28T07:00:08.898Z,6.50
2019-03-28T07:02:38.196Z,6.60
2019-03-28T07:05:07.909Z,6.70
2019-03-28T07:07:37.515Z,6.80
2019-03-28T07:10:07.446Z,6.80
2019-03-28T07:12:36.736Z,6.90
2019-03-28T07:15:08.294Z,7.00
2019-03-28T07:17:37.589Z,7.20
2019-03-28T07:20:09.080Z,7.30
2019-03-28T07:22:38.502Z,7.40
2019-03-28T07:25:08.450Z,7.50
2019-03-28T07:27:37.749Z,7.60
2019-03-28T07:30:10.281Z,7.80
2019-03-28T07:32:41.818Z,7.80
2019-03-28T07:35:10.629Z,7.90
2019-03-28T07:37:40.098Z,8.00
2019-03-28T07:40:10.648Z,8.10
2019-03-28T07:42:40.017Z,8.30
2019-03-28T07:45:09.743Z,8.40
2019-03-28T07:47:39.038Z,8.60
2019-03-28T07:50:08.939Z,8.60
2019-03-28T07:52:38.547Z,8.60
2019-03-28T07:55:08.460Z,8.50
2019-03-28T07:57:37.743Z,8.50
2019-03-28T08:00:09.982Z,8.50
2019-03-28T08:02:39.535Z,8.40
2019-03-28T08:05:10.379Z,8.50
2019-03-28T08:07:45.318Z,8.70
2019-03-28T08:10:11.979Z,8.80
2019-03-28T08:12:41.330Z,9.10
2019-03-28T08:15:11.727Z,9.10
2019-03-28T08:17:41.032Z,9.20
2019-03-28T08:20:11.583Z,9.40
2019-03-28T08:22:40.871Z,9.50
2019-03-28T08:25:12.030Z,9.60
2019-03-28T08:27:41.390Z,9.70
2019-03-28T08:30:18.831Z,9.80
2019-03-28T08:32:42.925Z,9.90
2019-03-28T08:35:12.646Z,10.20
2019-03-28T08:37:42.628Z,10.50
2019-03-28T08:40:14.996Z,10.80
2019-03-28T08:42:44.326Z,11.00
2019-03-28T08:45:13.758Z,11.00
2019-03-28T08:47:43.335Z,11.10
2019-03-28T08:50:12.947Z,11.10
2019-03-28T08:52:42.555Z,11.10
2019-03-28T08:55:12.167Z,11.20
2019-03-28T08:57:41.769Z,11.40
2019-03-28T09:00:16.337Z,11.50
2019-03-28T09:02:44.008Z,11.50
2019-03-28T09:05:13.315Z,11.80
2019-03-28T09:07:42.862Z,12.10
2019-03-28T09:10:12.226Z,12.30
2019-03-28T09:12:41.527Z,12.70
2019-03-28T09:15:12.403Z,12.90
2019-03-28T09:17:42.264Z,13.10
2019-03-28T09:20:12.232Z,13.30
2019-03-28T09:22:41.840Z,13.30
2019-03-28T09:25:12.399Z,13.30
2019-03-28T09:27:41.843Z,13.50
2019-03-28T09:30:13.426Z,13.80
2019-03-28T09:32:42.734Z,14.20
2019-03-28T09:35:15.104Z,14.50
2019-03-28T09:37:44.407Z,14.90
2019-03-28T09:40:13.920Z,15.10
2019-03-28T09:42:43.222Z,15.50
2019-03-28T09:45:12.982Z,15.80
2019-03-28T09:47:42.285Z,16.10
2019-03-28T09:50:11.654Z,16.30
2019-03-28T09:52:40.942Z,16.50
2019-03-28T09:55:10.267Z,16.50
2019-03-28T09:57:39.554Z,16.60
2019-03-28T10:00:11.366Z,16.70
2019-03-28T10:02:43.968Z,16.70
2019-03-28T10:05:12.287Z,16.70
2019-03-28T10:07:41.567Z,16.40
2019-03-28T10:10:11.454Z,16.60
2019-03-28T10:12:43.945Z,17.00
2019-03-28T10:15:12.091Z,17.10
2019-03-28T10:17:42.575Z,17.50
2019-03-28T10:20:13.347Z,17.50
2019-03-28T10:22:42.659Z,17.60
2019-03-28T10:25:12.955Z,17.70
2019-03-28T10:27:43.663Z,17.70
2019-03-28T10:30:13.917Z,17.80
2019-03-28T10:32:43.198Z,18.00
2019-03-28T10:35:15.583Z,18.20
2019-03-28T10:37:44.879Z,18.10
2019-03-28T10:40:14.174Z,18.30
2019-03-28T10:42:43.731Z,18.50
2019-03-28T10:45:13.167Z,18.70
2019-03-28T10:47:42.447Z,18.60
2019-03-28T10:50:11.810Z,18.80
2019-03-28T10:52:41.094Z,19.00
2019-03-28T10:55:10.390Z,18.70
2019-03-28T10:57:39.679Z,18.70
2019-03-28T11:00:23.136Z,18.40
2019-03-28T11:02:41.109Z,18.50
2019-03-28T11:05:10.742Z,18.50
2019-03-28T11:07:40.051Z,18.80
2019-03-28T11:10:09.401Z,18.80
2019-03-28T11:12:38.700Z,18.80
2019-03-28T11:15:08.055Z,18.70
2019-03-28T11:17:37.346Z,18.70
2019-03-28T11:20:07.826Z,18.60
2019-03-28T11:22:37.111Z,18.80
2019-03-28T11:25:07.575Z,19.00
2019-03-28T11:27:36.862Z,19.30
2019-03-28T11:30:08.504Z,19.50
2019-03-28T11:32:37.783Z,19.10
2019-03-28T11:35:08.691Z,18.50
2019-03-28T11:37:38.042Z,18.40
2019-03-28T11:40:09.587Z,18.30
2019-03-28T11:42:38.946Z,17.90
2019-03-28T11:45:09.760Z,17.60
2019-03-28T11:47:39.159Z,17.10
2019-03-28T11:50:08.891Z,17.00
2019-03-28T11:52:38.201Z,17.50
2019-03-28T11:55:07.919Z,18.20
2019-03-28T11:57:37.905Z,18.80
2019-03-28T12:00:11.468Z,18.90
2019-03-28T12:02:41.216Z,19.00
2019-03-28T12:05:10.559Z,19.30
2019-03-28T12:07:39.920Z,19.80
2019-03-28T12:10:10.630Z,20.30
2019-03-28T12:12:39.919Z,19.90
2019-03-28T12:15:09.731Z,19.10
2019-03-28T12:17:39.019Z,18.60
2019-03-28T12:20:09.535Z,18.10
2019-03-28T12:22:38.818Z,17.90
2019-03-28T12:25:08.432Z,17.70
2019-03-28T12:27:37.724Z,17.40
2019-03-28T12:30:09.847Z,17.40
2019-03-28T12:32:39.231Z,18.00
2019-03-28T12:35:09.111Z,18.90
2019-03-28T12:37:38.386Z,19.90
2019-03-28T12:40:11.225Z,20.10
2019-03-28T12:42:40.508Z,20.00
2019-03-28T12:45:13.151Z,19.40
2019-03-28T12:47:43.236Z,19.30
2019-03-28T12:50:13.641Z,18.80
2019-03-28T12:52:42.920Z,18.30
2019-03-28T12:55:12.527Z,18.30
2019-03-28T12:57:41.814Z,18.70
2019-03-28T13:00:12.340Z,19.10
2019-03-28T13:02:41.883Z,19.50
2019-03-28T13:05:11.593Z,19.50
2019-03-28T13:07:40.933Z,19.40
2019-03-28T13:10:13.067Z,19.40
2019-03-28T13:12:42.358Z,19.30
2019-03-28T13:15:12.237Z,19.50
2019-03-28T13:17:41.509Z,20.00
2019-03-28T13:20:11.332Z,20.30
2019-03-28T13:22:40.607Z,20.40
2019-03-28T13:25:10.026Z,20.90
2019-03-28T13:27:39.301Z,21.10
2019-03-28T13:30:13.503Z,20.80
2019-03-28T13:32:42.859Z,21.00
2019-03-28T13:35:12.687Z,21.20
2019-03-28T13:37:41.970Z,21.30
2019-03-28T13:40:11.583Z,20.80
2019-03-28T13:42:41.199Z,20.50
2019-03-28T13:45:11.627Z,20.50
2019-03-28T13:47:40.914Z,20.40
2019-03-28T13:50:12.502Z,20.30
2019-03-28T13:52:41.796Z,19.40
2019-03-28T13:55:11.135Z,18.80
2019-03-28T13:57:43.221Z,18.60
2019-03-28T14:00:13.138Z,19.00
2019-03-28T14:02:55.602Z,19.50
2019-03-28T14:05:13.411Z,20.10
2019-03-28T14:07:43.011Z,20.70
2019-03-28T14:10:12.523Z,20.80
2019-03-28T14:12:42.047Z,21.00
2019-03-28T14:15:11.491Z,20.90
2019-03-28T14:17:40.782Z,20.50
2019-03-28T14:20:10.595Z,19.70
2019-03-28T14:22:39.884Z,19.40
2019-03-28T14:25:09.390Z,18.80
2019-03-28T14:27:38.963Z,18.30
2019-03-28T14:30:11.459Z,17.60
2019-03-28T14:32:52.669Z,17.10
2019-03-28T14:35:12.691Z,16.90
2019-03-28T14:37:41.963Z,17.10
2019-03-28T14:40:11.762Z,17.80
2019-03-28T14:42:41.319Z,18.60
2019-03-28T14:45:11.023Z,19.10
2019-03-28T14:47:40.631Z,18.90
2019-03-28T14:50:10.606Z,18.90
2019-03-28T14:52:39.903Z,18.60
2019-03-28T14:55:10.952Z,18.10
2019-03-28T14:57:40.879Z,17.90
2019-03-28T15:00:35.031Z,17.90
2019-03-28T15:03:04.336Z,17.80
2019-03-28T15:05:33.606Z,17.50
2019-03-28T15:08:02.907Z,17.20
2019-03-28T15:10:32.184Z,16.90
2019-03-28T15:13:01.475Z,16.60
2019-03-28T15:15:30.770Z,16.50
2019-03-28T15:18:00.047Z,16.50
2019-03-28T15:20:29.326Z,16.20
2019-03-28T15:22:58.622Z,16.20
2019-03-28T15:25:27.907Z,16.20
2019-03-28T15:27:57.507Z,16.00
2019-03-28T15:30:27.106Z,16.00
2019-03-28T15:32:56.401Z,16.00
2019-03-28T15:35:25.690Z,15.90
2019-03-28T15:37:55.315Z,15.70
2019-03-28T15:40:24.586Z,15.60
2019-03-28T15:42:53.883Z,15.50
2019-03-28T15:45:23.153Z,15.60
2019-03-28T15:47:52.449Z,15.60
2019-03-28T15:50:21.732Z,15.50
2019-03-28T15:52:51.333Z,15.50
2019-03-28T15:55:20.598Z,15.60
2019-03-28T15:57:49.917Z,15.50
2019-03-28T16:00:19.361Z,15.40
2019-03-28T16:02:48.651Z,15.30
2019-03-28T16:05:17.926Z,15.20
2019-03-28T16:07:47.219Z,15.20
2019-03-28T16:10:16.737Z,15.10
2019-03-28T16:12:46.026Z,15.00
2019-03-28T16:15:15.370Z,15.00
2019-03-28T16:17:44.663Z,14.90
2019-03-28T16:20:14.306Z,14.90
2019-03-28T16:22:43.584Z,14.80
2019-03-28T16:25:13.142Z,14.70
2019-03-28T16:27:42.417Z,14.60
2019-03-28T16:30:13.460Z,14.60
2019-03-28T16:32:42.727Z,14.60
2019-03-28T16:35:12.031Z,14.70
2019-03-28T16:37:41.608Z,14.80
2019-03-28T16:40:11.053Z,14.80
2019-03-28T16:42:40.363Z,14.80
2019-03-28T16:45:10.135Z,14.70
2019-03-28T16:47:39.426Z,14.80
2019-03-28T16:50:08.953Z,14.80
2019-03-28T16:52:38.535Z,14.70
2019-03-28T16:55:08.347Z,14.60
2019-03-28T16:57:37.637Z,14.50
2019-03-28T17:00:14.514Z,14.50
2019-03-28T17:02:43.790Z,14.50
2019-03-28T17:05:13.214Z,14.40
2019-03-28T17:07:44.447Z,14.30
2019-03-28T17:10:19.587Z,14.30
2019-03-28T17:12:48.886Z,14.20
2019-03-28T17:15:18.164Z,14.10
2019-03-28T17:17:47.448Z,14.10
2019-03-28T17:20:16.727Z,14.10
2019-03-28T17:22:46.018Z,14.10
2019-03-28T17:25:15.302Z,14.10
2019-03-28T17:27:46.561Z,14.10
2019-03-28T17:30:16.239Z,14.10
2019-03-28T17:32:45.523Z,14.00
2019-03-28T17:35:14.819Z,13.90
2019-03-28T17:37:44.094Z,13.90
2019-03-28T17:40:13.390Z,13.80
2019-03-28T17:42:42.905Z,13.80
2019-03-28T17:45:12.488Z,13.70
2019-03-28T17:47:41.765Z,13.70
2019-03-28T17:50:11.191Z,13.70
2019-03-28T17:52:40.478Z,13.60
2019-03-28T17:55:09.906Z,13.60
2019-03-28T17:57:39.699Z,13.50
2019-03-28T18:00:09.690Z,13.50
2019-03-28T18:02:38.986Z,13.40
2019-03-28T18:05:09.921Z,13.50
2019-03-28T18:07:39.335Z,13.40
2019-03-28T18:10:08.962Z,13.40
2019-03-28T18:12:38.240Z,13.30
2019-03-28T18:15:08.201Z,13.20
2019-03-28T18:17:37.471Z,13.30
2019-03-28T18:20:07.595Z,13.20
2019-03-28T18:22:36.871Z,13.20
2019-03-28T18:25:07.759Z,13.10
2019-03-28T18:27:37.258Z,13.10
2019-03-28T18:30:08.191Z,13.10
2019-03-28T18:32:39.448Z,13.10
2019-03-28T18:35:08.704Z,13.10
2019-03-28T18:37:37.970Z,13.10
2019-03-28T18:40:08.503Z,13.00
2019-03-28T18:42:38.083Z,13.00
2019-03-28T18:45:08.405Z,12.90
2019-03-28T18:47:37.849Z,12.90
2019-03-28T18:50:07.983Z,12.90
2019-03-28T18:52:37.276Z,12.80
2019-03-28T18:55:07.690Z,12.80
2019-03-28T18:57:36.971Z,12.70
2019-03-28T19:00:08.511Z,12.80
2019-03-28T19:02:37.795Z,12.80
2019-03-28T19:05:19.178Z,12.80
2019-03-28T19:07:38.462Z,12.70
2019-03-28T19:10:08.514Z,12.70
2019-03-28T19:12:37.815Z,12.70
2019-03-28T19:15:08.351Z,12.70
2019-03-28T19:17:37.650Z,12.70
2019-03-28T19:20:09.888Z,12.70
2019-03-28T19:22:39.426Z,12.70
2019-03-28T19:25:09.552Z,12.70
2019-03-28T19:27:39.202Z,12.70
2019-03-28T19:30:10.260Z,12.70
2019-03-28T19:32:39.562Z,12.70
2019-03-28T19:35:09.687Z,12.60
2019-03-28T19:37:40.013Z,12.70
2019-03-28T19:40:10.458Z,12.70
2019-03-28T19:42:39.763Z,12.60
2019-03-28T19:45:09.589Z,12.60
2019-03-28T19:47:38.957Z,12.60
2019-03-28T19:50:08.580Z,12.60
2019-03-28T19:52:37.945Z,12.60
2019-03-28T19:55:07.405Z,12.60
2019-03-28T19:57:36.699Z,12.50
2019-03-28T20:00:07.818Z,12.50
2019-03-28T20:02:37.111Z,12.50
2019-03-28T20:05:07.434Z,12.50
2019-03-28T20:07:36.726Z,12.50
2019-03-28T20:10:16.206Z,12.50
2019-03-28T20:12:37.334Z,12.40
2019-03-28T20:15:08.437Z,12.40
2019-03-28T20:17:37.961Z,12.40
2019-03-28T20:20:08.543Z,12.40
2019-03-28T20:22:37.878Z,12.40
2019-03-28T20:25:07.806Z,12.40
2019-03-28T20:27:37.090Z,12.40
2019-03-28T20:30:08.122Z,12.30
2019-03-28T20:32:37.983Z,12.40
2019-03-28T20:35:10.487Z,12.30
2019-03-28T20:37:39.286Z,12.30
2019-03-28T20:40:08.935Z,12.20
2019-03-28T20:42:38.218Z,12.20
2019-03-28T20:45:08.259Z,12.20
2019-03-28T20:47:37.558Z,12.20
2019-03-28T20:50:09.883Z,12.20
2019-03-28T20:52:39.164Z,12.20
2019-03-28T20:55:08.804Z,12.20
2019-03-28T20:57:40.451Z,12.20
2019-03-28T21:00:09.915Z,12.10
2019-03-28T21:02:39.177Z,12.00
2019-03-28T21:05:09.411Z,12.00
2019-03-28T21:07:38.702Z,12.00
2019-03-28T21:10:10.006Z,11.90
2019-03-28T21:12:39.283Z,11.90
2019-03-28T21:15:08.911Z,11.90
2019-03-28T21:17:38.188Z,11.80
2019-03-28T21:20:07.927Z,11.80
2019-03-28T21:22:37.207Z,11.70
2019-03-28T21:25:07.265Z,11.70
2019-03-28T21:27:36.542Z,11.70
2019-03-28T21:30:06.991Z,11.60
2019-03-28T21:32:36.342Z,11.50
2019-03-28T21:35:06.688Z,11.40
2019-03-28T21:37:35.970Z,11.30
2019-03-28T21:40:06.911Z,11.30
2019-03-28T21:42:36.194Z,11.40
2019-03-28T21:45:06.518Z,11.60
2019-03-28T21:47:45.938Z,11.80
2019-03-28T21:50:15.307Z,11.90
2019-03-28T21:52:44.583Z,11.70
2019-03-28T21:55:13.942Z,11.60
2019-03-28T21:57:43.251Z,11.40
2019-03-28T22:00:12.778Z,11.20
2019-03-28T22:02:42.063Z,11.10
2019-03-28T22:05:11.507Z,11.00
2019-03-28T22:07:41.128Z,11.00
2019-03-28T22:10:10.818Z,10.90
2019-03-28T22:12:41.541Z,10.90
2019-03-28T22:15:11.515Z,10.80
2019-03-28T22:17:41.965Z,10.70
2019-03-28T22:20:11.562Z,10.60
2019-03-28T22:22:43.439Z,10.50
2019-03-28T22:25:11.907Z,10.40
2019-03-28T22:27:41.205Z,10.40
2019-03-28T22:30:11.258Z,10.40
2019-03-28T22:32:40.551Z,10.50
2019-03-28T22:35:10.575Z,10.70
2019-03-28T22:37:39.870Z,10.90
2019-03-28T22:40:11.977Z,11.00
2019-03-28T22:42:40.968Z,10.90
2019-03-28T22:45:12.846Z,10.90
2019-03-28T22:47:42.297Z,10.70
2019-03-28T22:50:12.167Z,10.50
2019-03-28T22:52:41.450Z,10.30
2019-03-28T22:55:11.591Z,10.20
2019-03-28T22:57:41.844Z,10.00
2019-03-28T23:00:14.218Z,10.00
2019-03-28T23:02:45.154Z,9.80
2019-03-28T23:05:14.798Z,9.70
2019-03-28T23:07:44.342Z,9.70
2019-03-28T23:10:13.770Z,9.60
2019-03-28T23:12:43.051Z,9.60
2019-03-28T23:15:12.488Z,9.60
2019-03-28T23:17:41.783Z,9.60
2019-03-28T23:20:11.594Z,9.50
2019-03-28T23:22:40.926Z,9.40
2019-03-28T23:25:10.859Z,9.50
2019-03-28T23:27:40.594Z,9.50
2019-03-28T23:30:10.325Z,9.50
2019-03-28T23:32:39.601Z,9.50
2019-03-28T23:35:10.124Z,9.50
2019-03-28T23:37:39.422Z,9.50
2019-03-28T23:40:09.935Z,9.40
2019-03-28T23:42:39.463Z,9.30
2019-03-28T23:45:12.184Z,9.30
2019-03-28T23:47:42.414Z,9.30
2019-03-28T23:50:11.757Z,9.30
2019-03-28T23:52:41.060Z,9.20
2019-03-28T23:55:10.575Z,9.20
2019-03-28T23:57:39.870Z,9.20
